Date,TemperatureHighF,TemperatureAvgF,TemperatureLowF,DewpointHighF,DewpointAvgF,DewpointLowF,HumidityHigh,HumidityAvg,HumidityLow,PressureMaxIn,PressureMinIn,WindSpeedMaxMPH,WindSpeedAvgMPH,GustSpeedMaxMPH,PrecipitationSumIn
2014-1-1,30.2,0.8,-0.6,29.2,-6.8,-8.3,96,70,69,29.50,29.03,6,3,6,0.00
2014-1-2,10.6,-1.3,-11.7,2.4,-9.0,-19.0,69,69,69,29.59,29.47,7,3,7,0.00
2014-1-3,28.0,7.9,-13.2,24.4,0.0,-20.4,86,70,59,29.47,28.47,26,8,26,0.00
2014-1-4,34.9,22.2,9.9,32.5,12.5,-4.6,93,67,47,29.14,28.47,18,8,18,0.00
2014-1-5,9.9,-9.3,-19.8,-4.6,-22.5,-32.5,51,51,51,29.44,29.12,17,6,17,0.00
2014-1-6,-9.6,-19.1,-22.9,-22.8,-31.7,-35.2,51,51,51,29.44,29.23,15,6,15,0.00
2014-1-7,10.4,-3.9,-16.1,-4.1,-17.4,-28.8,51,51,51,29.32,29.17,9,3,9,0.00
2014-1-8,12.2,-3.1,-12.5,-2.5,-16.8,-25.6,51,51,51,29.56,29.29,6,2,6,0.00
2014-1-9,27.7,11.0,-13.4,14.1,-0.5,-26.3,90,60,48,29.53,28.94,18,5,18,0.00
2014-1-10,32.0,25.0,15.4,29.5,23.5,13.0,98,94,87,29.38,28.52,12,4,12,0.00
2014-1-11,34.0,27.3,21.9,29.5,24.6,20.0,98,90,64,28.76,22.68,12,4,12,0.00
2014-1-12,22.1,21.8,21.6,20.7,20.3,19.9,95,94,92,28.70,28.67,6,3,6,0.00
2014-1-13,35.2,29.9,24.3,30.0,22.5,14.8,89,75,51,28.76,28.52,13,4,13,0.00
2014-1-14,28.8,19.9,6.8,27.0,12.7,-2.8,98,74,54,29.20,28.52,16,7,16,0.00
2014-1-15,27.0,7.1,-1.7,20.7,-1.9,-10.9,87,66,51,29.20,28.47,24,5,24,0.00
2014-1-16,34.9,28.4,6.1,33.3,23.7,-8.6,98,83,50,28.97,28.41,17,6,17,0.00
2014-1-17,20.3,5.3,-0.4,2.2,-9.7,-14.6,50,49,45,29.12,28.85,15,6,15,0.00
2014-1-18,29.8,16.8,10.0,14.0,7.7,-6.6,92,69,46,29.03,28.58,15,4,15,0.00
2014-1-19,43.7,38.3,16.2,27.2,23.7,11.1,83,57,51,28.82,28.50,15,5,15,0.00
2014-1-20,30.0,16.3,-3.8,25.2,6.7,-15.9,87,66,55,29.50,28.76,22,6,22,0.00
2014-1-21,6.8,-3.7,-15.9,-5.9,-15.8,-27.3,55,55,55,29.56,29.03,10,3,10,0.00
2014-1-22,7.9,3.4,-9.2,-5.1,-9.1,-21.0,55,55,55,29.56,29.00,23,8,23,0.00
2014-1-23,4.8,-8.3,-17.3,-8.1,-20.1,-28.6,55,55,55,30.24,29.26,17,5,17,0.00
2014-1-24,34.5,24.6,5.0,33.1,15.0,-7.8,98,67,45,29.26,28.52,23,8,23,0.00
2014-1-25,27.0,8.3,2.5,7.1,-12.2,-17.8,45,38,36,29.00,28.58,23,7,23,0.00
2014-1-26,20.8,7.2,-8.0,9.1,-9.8,-23.2,76,45,37,29.14,28.41,26,8,27,0.00
2014-1-27,-1.8,-10.9,-16.2,-17.9,-26.0,-30.9,46,46,46,29.50,29.12,18,6,18,0.00
2014-1-28,4.6,-10.7,-16.1,-11.6,-25.7,-30.7,46,46,46,29.47,29.14,10,4,10,0.00
2014-1-29,33.1,15.7,-5.6,14.7,-2.0,-21.0,52,45,38,29.14,28.64,20,6,20,0.00
2014-1-30,30.2,17.3,-3.8,23.0,5.6,-19.1,93,61,46,29.14,28.50,18,6,18,561.92
2014-1-31,18.1,-2.6,-11.9,-1.9,-18.3,-26.5,47,46,40,29.23,29.06,11,3,11,0.00
2014-2-1,28.4,13.6,-1.3,12.6,-2.6,-15.0,62,48,41,29.29,28.97,12,5,12,0.00
2014-2-2,21.2,1.1,-12.8,2.9,-12.8,-24.7,54,51,42,29.38,29.23,9,3,10,0.00
2014-2-3,25.0,9.3,0.0,6.7,-6.4,-15.9,59,48,45,29.44,29.23,8,3,9,0.00
2014-2-4,0.7,-0.9,-2.2,-13.4,-14.7,-15.9,51,51,51,29.47,29.41,4,2,4,0.00
2014-2-6,0.3,-0.4,-1.7,-15.6,-16.2,-17.4,46,46,46,29.35,29.29,11,4,11,0.00
2014-2-7,20.5,1.8,-5.6,-2.4,-15.0,-21.0,46,44,35,29.29,29.17,15,5,17,0.00
2014-2-8,32.4,6.6,-2.6,13.4,-10.4,-21.4,61,45,39,29.23,29.12,8,2,8,0.00
2014-2-9,11.5,2.4,-7.8,0.6,-7.9,-17.6,61,61,61,29.47,29.23,14,5,15,0.00
2014-2-10,12.9,-2.3,-12.3,2.0,-12.5,-21.9,61,61,61,29.56,29.47,6,3,9,0.00
2014-2-11,19.2,4.8,-15.2,0.2,-10.2,-24.6,61,50,43,29.56,29.12,23,6,23,0.00
2014-2-12,37.6,22.1,13.6,22.9,13.9,-3.8,87,72,45,29.17,28.85,13,4,13,0.00
2014-2-13,20.8,18.0,13.5,13.7,7.7,1.1,85,64,55,28.85,28.55,21,8,21,0.00
2014-2-14,21.2,7.1,-0.2,3.2,-6.5,-15.6,57,53,44,29.12,28.79,12,4,12,0.00
2014-2-15,20.5,13.3,-2.6,13.4,3.9,-17.8,81,66,47,29.12,28.85,10,3,10,0.00
2014-2-16,32.5,17.8,4.5,12.5,5.4,-2.8,78,59,41,29.32,29.03,23,2,23,0.00
2014-2-17,35.6,24.3,18.1,25.6,18.4,10.7,98,79,61,29.03,28.70,26,5,26,0.00
2014-2-18,52.2,31.0,21.2,29.5,21.9,17.3,98,71,40,28.85,28.58,10,4,10,0.00
2014-2-19,51.1,38.2,23.9,31.9,28.1,20.0,86,68,48,28.88,28.73,15,4,15,0.00
2014-2-20,37.9,34.3,14.9,34.2,30.3,13.1,98,85,72,28.73,28.32,22,4,22,0.00
2014-2-21,21.9,14.5,6.4,13.1,7.2,0.9,93,75,53,28.70,28.38,20,8,20,0.00
2014-2-22,20.8,10.0,2.8,7.1,-1.5,-6.6,64,59,47,29.09,28.70,13,5,16,0.00
2014-2-23,21.9,10.9,1.0,4.8,-2.7,-11.3,60,54,45,29.35,29.20,14,5,14,0.00
2014-2-24,20.1,6.9,-3.6,2.5,-6.3,-14.0,60,55,43,29.44,29.35,10,4,11,0.00
2014-2-25,11.8,1.2,-8.9,-4.5,-14.3,-23.6,47,47,47,29.44,29.32,16,5,16,0.00
2014-2-26,9.3,-9.5,-11.7,0.0,-23.9,-26.3,54,47,47,29.44,28.67,23,2,23,0.00
2014-2-27,2.5,-7.8,-11.2,-10.4,-33.2,-45.9,54,32,15,29.20,29.09,12,5,12,0.00
2014-2-28,12.9,3.0,-8.0,-26.0,-34.2,-43.2,15,15,15,29.12,28.94,15,4,15,0.00
2014-3-2,9.7,-3.9,-16.4,0.0,-13.0,-25.0,64,64,64,29.65,29.53,10,4,10,0.00
2014-3-3,20.1,2.3,-15.2,3.9,-12.7,-23.8,64,51,34,29.62,29.29,9,3,9,0.00
2014-3-4,27.9,15.9,7.2,11.0,-0.2,-12.6,66,49,39,29.38,29.20,8,2,8,0.00
2014-3-5,38.1,20.7,9.7,15.9,7.6,2.8,73,58,39,29.53,29.38,15,2,15,0.00
2014-3-6,31.8,21.8,12.0,22.4,13.6,3.8,87,71,56,29.44,28.88,23,6,23,0.00
2014-3-7,36.9,29.8,24.6,31.1,23.3,13.8,90,77,61,29.29,28.85,16,5,16,0.00
2014-3-8,38.5,25.2,15.1,17.7,12.7,8.3,79,60,40,29.41,29.26,10,3,10,0.00
2014-3-9,48.6,30.4,14.4,34.2,21.9,10.9,89,72,50,29.32,28.73,20,4,20,0.00
2014-3-10,59.7,43.3,35.8,37.5,34.6,31.8,94,73,43,28.79,28.67,12,3,12,0.00
2014-3-11,46.8,39.3,30.6,36.0,30.9,15.2,94,73,40,29.09,28.76,18,3,18,0.00
2014-3-12,34.9,25.9,17.8,18.2,10.6,5.9,74,52,40,29.20,29.09,15,5,15,0.00
2014-3-13,57.7,39.4,18.1,37.9,28.4,11.0,91,67,44,29.09,28.58,12,5,13,0.00
2014-3-14,47.5,40.9,34.9,34.9,31.1,18.6,81,69,50,28.91,28.55,22,7,22,0.00
2014-3-15,35.8,27.2,20.1,17.7,11.7,2.7,74,53,41,29.47,29.03,8,8,8,0.00
2014-3-16,38.1,21.9,9.1,14.9,3.4,-6.6,58,44,33,29.56,29.09,8,8,8,0.00
2014-3-17,23.7,23.1,22.8,14.0,12.4,10.6,66,63,59,29.09,28.94,8,8,8,0.00
2014-3-18,41.2,32.7,29.5,30.6,22.7,20.2,98,67,50,28.85,28.64,10,4,10,0.00
2014-3-19,29.8,28.0,27.1,29.3,27.5,26.1,98,98,96,28.85,28.82,11,6,11,0.00
2014-3-20,53.1,30.0,20.3,38.7,25.2,19.8,98,86,40,29.12,28.97,10,2,10,0.00
2014-3-21,50.7,36.0,22.5,35.4,27.3,11.1,82,71,52,29.23,28.79,18,7,18,0.00
2014-3-22,24.8,17.1,7.9,10.9,2.5,-1.4,68,53,42,29.59,29.23,18,8,18,0.00
2014-3-23,28.6,13.0,6.4,9.0,-0.8,-6.3,60,53,43,29.62,29.53,4,4,4,0.00
2014-3-24,32.0,20.0,14.5,22.9,12.4,6.6,79,72,61,29.44,29.29,4,4,4,0.00
2014-3-25,28.0,17.9,9.1,17.8,1.6,-6.6,87,49,38,29.38,29.20,22,6,22,0.00
2014-3-26,45.0,29.7,11.8,24.2,14.4,0.6,74,53,40,29.23,28.64,30,7,30,0.00
2014-3-27,41.2,37.4,31.6,39.6,34.4,24.2,98,90,53,28.82,28.52,18,5,18,0.00
2014-3-28,46.4,33.7,27.7,28.1,22.7,18.5,88,66,39,29.20,28.82,13,5,13,0.00
2014-3-29,52.0,36.1,17.6,27.5,17.2,7.5,87,50,26,29.38,29.12,13,3,13,0.00
2014-3-30,68.0,43.5,36.7,45.7,32.6,27.5,76,66,43,29.14,28.82,18,6,21,0.00
2014-3-31,62.1,46.7,30.7,50.1,37.6,27.4,98,72,55,28.82,28.41,21,8,24,0.00
2014-4-1,40.3,29.8,20.3,32.0,21.5,13.0,98,73,51,29.20,28.47,25,7,25,0.00
2014-4-2,39.4,26.8,0.0,22.1,19.8,0.0,83,76,44,29.26,29.12,10,3,13,0.00
2014-4-3,38.8,35.7,29.1,33.1,26.5,20.0,98,72,48,29.12,28.82,13,4,13,0.00
2014-4-4,45.1,34.1,25.9,29.0,25.6,20.3,98,74,44,29.14,28.76,20,7,20,0.00
2014-4-5,56.7,35.1,21.9,37.0,27.6,21.4,98,78,45,29.20,29.00,14,4,14,0.00
2014-4-6,69.1,51.5,41.7,45.2,35.5,27.9,100,56,37,29.03,28.88,20,5,20,0.00
2014-4-7,60.4,45.3,37.0,46.8,40.1,27.3,98,85,44,28.91,28.82,13,3,13,0.00
2014-4-8,56.5,44.9,34.7,32.7,27.6,22.5,71,52,36,29.09,28.88,17,6,17,0.00
2014-4-9,74.8,53.8,32.2,43.0,34.7,25.7,86,52,31,29.03,28.52,21,6,21,0.00
2014-4-10,63.9,55.9,41.7,42.5,19.9,-10.6,60,33,5,29.03,28.61,28,8,28,0.00
2014-4-11,71.8,51.9,39.9,41.0,31.2,24.8,70,47,26,29.06,28.97,10,2,11,0.00
2014-4-12,66.0,52.5,45.3,48.1,40.9,29.9,91,67,39,29.00,28.76,18,4,18,0.00
2014-4-13,46.2,39.9,35.4,43.7,29.6,21.0,94,67,55,29.00,28.79,20,7,20,0.00
2014-4-14,41.2,32.5,27.9,21.3,12.0,-14.2,58,45,10,29.14,28.97,24,10,24,0.00
2014-4-15,46.8,26.7,18.1,13.7,5.3,-14.3,59,44,8,29.26,29.12,12,5,12,0.00
2014-4-16,41.2,35.1,30.9,33.7,24.8,13.5,98,69,43,30.00,28.91,15,4,15,0.29
2014-4-17,50.0,35.9,29.5,33.5,27.2,19.2,98,74,45,29.41,28.97,13,5,13,0.33
2014-4-18,58.5,42.4,24.4,35.4,28.2,19.6,98,62,37,29.44,29.23,17,3,17,0.33
2014-4-19,70.9,54.4,43.2,55.5,40.5,26.5,94,61,42,29.26,29.03,17,6,21,0.37
2014-4-20,84.0,66.4,50.2,56.7,50.2,41.0,98,64,25,29.14,29.00,11,2,11,0.42
2014-4-21,70.9,59.2,46.6,57.9,45.1,26.4,98,66,32,29.14,28.94,20,7,20,0.50
2014-4-22,66.7,54.7,41.9,36.0,27.4,22.3,56,35,25,29.17,29.12,11,3,13,0.00
2014-4-23,48.6,42.9,40.3,39.8,30.3,21.1,94,64,42,29.20,28.97,22,4,22,0.25
2014-4-24,49.3,42.9,37.9,46.5,41.2,37.4,98,94,81,29.00,28.73,17,3,17,1.58
2014-4-25,61.9,38.6,34.0,45.3,36.3,33.5,98,93,47,28.88,28.76,15,2,15,0.00
2014-4-26,64.8,52.6,47.3,41.6,38.7,36.4,70,61,41,30.00,29.97,15,6,15,0.04
2014-4-27,47.1,41.3,0.0,41.9,37.6,0.0,98,86,64,29.97,29.62,22,6,22,0.50
2014-4-28,44.8,43.0,41.0,43.4,41.1,39.1,98,93,83,29.76,29.65,15,7,17,1.07
2014-4-29,42.4,38.5,35.6,39.4,37.1,35.1,98,95,80,29.79,29.68,12,12,12,0.75
2014-4-30,41.9,40.8,35.4,39.9,39.4,34.9,98,95,89,29.85,29.79,12,12,12,5.22
2014-5-1,40.5,40.1,39.4,39.9,39.3,38.6,98,97,96,29.82,29.76,12,12,12,0.00
2014-5-2,64.2,48.6,41.7,44.7,40.5,37.8,95,76,42,29.91,29.65,12,12,12,0.71
2014-5-4,69.4,52.6,36.3,40.7,28.1,20.6,71,42,17,30.21,29.74,12,4,12,0.00
2014-5-5,76.1,59.5,48.7,40.2,32.0,27.4,47,36,24,30.12,29.06,13,2,13,0.00
2014-5-6,71.6,58.7,45.1,40.5,35.8,30.3,68,43,30,30.06,29.85,15,4,19,0.00
2014-5-7,69.3,60.1,52.3,51.0,43.7,35.2,84,55,46,29.88,29.71,11,5,11,0.00
2014-5-8,81.3,59.3,51.6,62.7,55.4,49.8,98,89,47,29.85,29.59,28,2,28,0.96
2014-5-9,66.9,51.5,43.5,60.6,43.5,36.1,98,76,47,29.91,29.62,22,6,22,0.62
2014-5-10,74.8,56.6,39.2,54.7,45.2,37.3,98,71,33,30.00,29.82,19,4,19,0.04
2014-5-11,78.3,60.4,47.3,60.3,53.0,46.8,98,79,46,30.00,29.82,11,2,11,0.04
2014-5-12,63.7,57.1,48.9,62.9,56.4,48.4,98,97,92,29.91,29.74,9,3,9,1.91
2014-5-13,54.7,48.8,44.2,48.2,39.8,0.0,98,72,9,30.27,29.91,13,7,13,0.00
2014-5-14,69.1,50.6,36.7,40.8,36.0,27.4,97,63,26,30.33,30.21,11,3,11,0.00
2014-5-15,51.8,43.8,40.1,38.7,29.2,26.0,92,57,40,30.33,30.15,12,5,12,0.00
2014-5-16,61.7,43.7,39.4,33.5,29.6,22.5,75,59,27,30.18,30.12,11,2,11,0.00
2014-5-17,71.8,68.4,59.2,38.1,26.4,-14.5,34,23,3,30.12,30.09,16,5,16,0.00
2014-5-18,78.3,63.4,48.4,44.4,35.7,29.1,54,37,22,30.18,30.06,20,5,20,0.00
2014-5-19,126.3,56.5,51.8,54.7,44.7,35.5,98,69,39,30.12,29.82,18,6,18,1.08
2014-5-20,83.7,65.0,49.3,64.2,57.3,48.7,98,80,40,30.00,29.82,6,2,6,0.00
2014-5-21,70.0,61.0,52.7,60.4,48.4,43.1,98,65,45,30.21,29.91,15,5,15,0.00
2014-5-22,76.5,61.6,44.2,50.6,44.4,37.4,96,58,33,30.33,30.18,11,2,11,0.00
2014-5-23,83.5,59.2,46.6,55.6,47.3,43.2,95,70,30,30.33,30.27,7,2,7,0.00
2014-5-26,72.9,69.6,68.0,67.1,65.8,40.5,94,88,32,30.21,28.94,10,5,10,0.00
2014-5-27,75.0,68.5,61.5,71.8,66.7,60.5,98,94,73,29.09,28.94,14,2,14,0.17
2014-5-28,87.4,71.0,59.2,61.7,59.7,57.8,98,74,39,29.14,29.06,11,1,11,0.00
2014-5-30,96.6,83.9,76.8,65.9,57.6,53.3,50,41,32,29.17,29.09,12,3,12,0.17
2014-5-31,90.3,76.1,67.8,73.4,64.5,53.3,98,70,44,29.14,28.94,14,4,14,0.79
2014-6-1,72.0,68.6,64.0,69.0,66.3,63.5,98,93,85,28.97,28.79,11,4,11,0.12
2014-6-2,81.5,65.4,61.7,67.7,58.8,52.6,98,80,55,28.94,28.73,15,6,15,2.70
2014-6-3,79.9,66.0,55.9,57.8,53.7,51.2,94,67,41,29.09,28.94,11,4,11,0.00
2014-6-4,93.0,74.0,58.3,59.9,57.1,48.7,94,61,29,29.00,28.91,8,2,8,0.00
2014-6-5,87.6,72.1,66.4,63.7,58.4,51.9,88,65,32,29.00,28.91,14,5,14,0.00
2014-6-10,78.3,67.9,62.4,60.8,51.7,49.5,72,57,40,29.00,28.94,7,0,7,0.00
2014-6-11,93.2,75.1,59.4,60.7,56.1,53.2,84,55,32,28.97,28.70,2,0,2,1.05
2014-6-12,65.8,64.5,61.3,64.2,58.4,45.1,98,83,53,29.00,28.73,17,3,17,0.04
2014-6-14,65.1,63.1,59.5,57.8,49.5,46.0,93,62,50,29.91,29.00,28,2,28,0.54
2014-6-16,89.6,71.6,59.7,69.4,61.1,55.8,98,73,39,30.00,29.74,23,5,23,3.15
2014-6-17,93.4,74.5,61.3,68.6,63.1,59.5,96,71,39,29.94,29.74,8,2,8,3.15
2014-6-18,79.5,79.5,79.5,65.4,65.4,65.4,62,62,62,29.88,29.88,3,3,4,0.00
2014-6-19,79.5,69.6,64.8,71.2,67.1,64.2,98,92,72,30.15,29.88,17,6,17,3.78
2014-6-23,89.4,75.4,46.9,73.3,65.8,37.3,98,77,41,29.97,29.00,10,2,10,0.00
2014-6-28,88.7,74.5,67.5,79.0,70.7,0.0,100,89,67,29.91,29.74,23,5,23,0.75
2014-6-29,86.7,76.1,63.1,71.2,65.5,61.8,98,73,48,29.85,29.76,19,5,19,0.04
2014-6-30,84.9,71.8,63.3,70.3,65.8,59.7,95,83,55,29.79,29.74,11,3,11,0.04
2014-7-1,78.1,68.6,61.3,65.5,60.3,53.5,88,75,56,29.85,29.59,15,5,15,0.00
2014-7-2,79.5,65.2,55.2,55.8,51.4,42.8,97,66,33,30.21,29.91,11,4,11,0.00
2014-7-3,90.5,74.7,57.4,54.9,50.0,45.5,81,45,30,30.33,30.21,8,2,8,0.00
2014-7-4,61.2,59.4,57.7,54.1,53.2,52.1,84,80,73,30.33,30.30,2,0,2,0.00
2014-7-5,88.5,76.2,65.7,73.2,66.5,57.1,93,73,56,30.21,29.94,14,5,14,0.00
2014-7-6,94.6,78.5,68.2,78.8,70.0,63.2,98,78,38,29.97,29.76,16,5,16,0.08
2014-7-7,92.7,74.7,61.9,69.8,65.2,60.7,98,76,41,29.88,29.71,24,3,24,0.34
2014-7-8,66.2,65.6,64.8,65.2,63.3,61.3,97,92,87,29.79,29.74,6,5,6,0.00
2014-7-12,81.1,72.5,64.0,72.4,69.1,61.0,98,90,68,30.12,29.09,11,3,11,0.12
2014-7-13,83.3,72.3,63.1,66.7,57.2,48.0,98,64,36,30.09,29.97,13,4,13,0.04
2014-7-14,68.2,62.1,56.5,57.6,52.7,45.9,98,73,50,30.12,29.94,18,5,18,0.29
2014-7-15,57.0,56.8,56.5,55.7,55.4,54.5,96,95,93,30.15,30.15,8,4,8,0.00
2014-7-21,97.3,87.9,56.5,82.6,79.6,54.5,93,77,63,30.15,29.88,13,5,13,0.29
2014-7-22,89.6,80.1,67.5,78.7,68.4,56.3,96,70,44,30.27,29.88,11,5,11,0.29
2014-7-23,90.3,74.5,60.1,62.9,58.0,50.7,94,61,35,30.36,30.24,9,2,9,0.29
2014-7-24,88.7,72.1,58.3,67.5,61.5,57.0,98,73,42,30.30,29.88,17,2,17,0.29
2014-7-25,83.7,68.2,63.3,74.3,65.0,61.6,98,90,71,30.03,29.88,11,3,11,0.58
2014-8-1,81.7,81.7,81.7,72.6,72.6,72.6,74,74,74,29.88,29.88,4,4,4,0.00
2014-8-10,82.2,71.6,69.1,72.7,69.5,68.4,98,93,73,30.06,29.06,3,2,3,0.00
2014-8-11,83.8,70.4,63.5,71.2,64.9,55.6,98,85,45,30.12,30.00,14,4,14,0.04
2014-8-13,92.8,74.1,59.5,67.5,60.5,55.6,97,66,36,30.18,30.12,9,2,9,0.00
2014-8-14,90.0,72.7,59.2,63.3,57.9,51.5,81,62,39,30.24,30.06,8,2,8,0.00
2014-8-15,92.7,76.1,63.3,70.8,66.1,59.8,96,73,45,30.12,29.94,10,3,10,0.00
2014-8-16,95.0,76.8,64.2,76.4,70.0,63.7,98,82,47,30.00,29.91,7,2,7,0.00
2014-8-17,92.3,72.6,67.5,77.8,70.6,66.9,98,94,60,30.06,29.91,11,2,11,1.91
2014-8-18,92.3,76.1,66.7,76.4,69.1,65.2,98,82,43,29.94,29.71,10,3,10,0.00
2014-8-19,87.6,72.5,64.6,70.5,66.3,64.0,98,83,53,29.85,28.82,8,3,8,0.00
2014-8-20,93.4,75.8,62.1,73.4,68.4,61.5,98,80,49,29.97,29.85,7,2,7,0.00
2014-8-21,93.0,76.0,69.8,79.4,72.1,68.6,98,89,62,29.97,29.82,12,3,12,0.04
2014-8-22,82.9,74.3,67.5,74.1,71.0,66.9,98,90,71,30.12,29.91,6,2,6,0.04
2014-8-23,82.6,70.1,66.7,76.2,69.1,66.2,98,97,79,30.12,29.94,10,2,10,0.04
2014-8-24,94.5,77.2,71.6,80.2,73.7,71.0,98,90,60,30.00,29.88,15,4,15,0.00
2014-8-25,84.0,73.5,64.4,71.0,62.7,55.1,98,73,42,30.15,29.94,12,3,12,0.00
2014-8-26,84.2,67.5,56.5,61.4,54.5,49.0,92,66,38,30.33,30.12,10,2,10,0.00
2014-8-27,87.1,68.2,58.3,62.0,59.6,56.7,96,77,41,30.33,30.24,9,1,9,0.00
2014-8-28,87.6,68.1,66.7,66.3,65.8,59.6,98,94,39,30.24,29.94,7,4,7,0.29
2014-8-29,86.2,75.4,66.2,76.2,70.8,0.0,98,87,64,29.97,29.79,9,3,9,0.29
2014-8-30,89.6,70.7,64.8,70.5,66.9,63.8,98,89,51,29.97,29.82,7,2,7,0.00
2014-8-31,66.9,63.8,62.8,66.3,63.3,62.2,98,98,97,29.97,29.68,10,2,10,0.00
2014-9-1,82.6,71.9,64.8,71.0,62.8,54.2,98,77,43,29.88,29.68,12,4,12,0.00
2014-9-6,68.9,50.9,50.4,58.7,50.2,49.8,98,97,70,30.30,29.88,4,2,4,0.00
2014-9-7,82.6,72.1,50.0,54.8,51.0,48.0,98,51,32,30.27,30.09,10,5,10,0.00
2014-9-8,81.0,66.7,58.1,62.0,57.5,53.5,87,73,49,30.09,29.91,11,7,11,0.00
2014-9-9,82.8,65.1,59.2,72.5,62.5,58.6,98,92,69,29.94,29.76,9,5,9,0.00
2014-9-10,67.3,56.8,47.7,66.5,54.6,42.4,98,93,81,30.21,29.74,9,9,9,0.00
2014-9-11,64.2,53.4,42.8,44.8,39.1,35.2,93,61,38,30.47,30.18,9,9,9,0.00
2014-9-12,61.0,52.5,46.0,45.7,38.6,30.7,93,63,36,30.53,30.41,9,9,9,0.00
2014-9-13,47.7,47.7,47.7,38.4,38.4,38.4,70,70,70,30.44,29.23,11,3,11,0.00
2014-9-14,47.7,47.7,47.7,38.4,38.4,38.4,70,70,70,29.26,29.17,12,4,12,0.00
2014-9-15,47.7,47.7,47.7,38.4,38.4,38.4,70,70,70,29.32,29.20,8,2,8,0.04
2014-9-16,47.7,47.7,47.7,38.4,38.4,38.4,70,70,70,29.32,29.06,9,2,9,0.00
2014-9-17,47.7,47.7,47.7,38.4,38.4,38.4,70,70,70,29.12,29.00,6,2,6,0.00
2014-9-18,47.7,47.7,47.7,38.4,38.4,38.4,70,70,70,29.20,29.06,9,2,9,0.00
2014-9-19,47.7,47.7,47.7,38.4,38.4,38.4,70,70,70,29.09,28.70,17,4,17,0.00
2014-9-20,83.1,71.2,0.0,69.9,61.4,0.0,98,75,39,29.91,28.73,26,4,26,1.59
2014-9-21,71.6,59.8,52.0,54.9,50.1,46.4,95,72,44,30.33,29.94,13,4,13,0.00
2014-9-22,80.4,60.9,45.5,58.4,51.0,45.0,98,75,38,30.39,30.24,9,2,9,0.08
2014-9-23,82.8,64.5,50.9,57.7,52.9,49.2,96,69,39,30.33,30.21,14,3,14,1.71
2014-9-24,66.7,62.6,59.2,58.8,55.9,52.8,91,79,69,30.30,30.18,15,4,15,0.00
2014-9-25,86.5,69.2,58.3,66.8,60.8,57.0,98,77,47,30.33,30.24,10,3,10,0.00
2014-9-26,63.1,62.1,61.3,59.5,58.8,58.0,92,89,87,30.27,30.24,2,2,2,0.00
2014-9-27,89.8,73.6,62.8,65.3,61.7,58.8,91,70,38,30.27,30.15,13,3,13,0.00
2014-10-2,56.7,54.6,53.4,56.1,54.1,52.9,98,98,98,29.88,28.85,4,3,5,7.67
2014-10-3,53.4,44.4,39.4,52.9,27.2,25.2,98,51,43,29.94,29.82,20,9,20,11.67
2014-10-4,55.2,44.1,36.5,35.8,31.5,26.6,96,63,40,29.91,29.76,18,6,18,1.82
2014-10-5,53.1,42.6,34.9,39.9,32.8,29.3,90,69,47,29.76,29.62,13,3,13,0.00
2014-10-6,67.1,49.7,35.4,42.5,37.8,34.6,98,68,37,29.65,29.50,13,4,13,13.49
2014-10-7,61.0,50.8,44.1,46.7,37.7,30.4,95,61,45,29.97,29.56,14,4,14,0.00
2014-10-8,64.4,50.1,41.5,40.0,34.3,28.0,85,57,32,30.18,29.94,13,4,14,13.49
2014-10-9,60.3,44.7,32.5,39.0,31.9,27.6,95,64,36,30.33,30.18,10,2,10,0.00
2014-10-10,56.1,38.3,31.6,44.8,34.7,30.6,98,89,51,30.39,30.30,6,1,6,0.00
2014-10-11,67.1,55.3,42.8,38.0,33.0,28.2,65,44,32,30.33,29.06,10,2,10,0.00
2014-10-12,67.5,52.2,39.0,50.7,39.3,31.5,91,65,36,30.09,28.82,21,5,21,0.00
2014-10-13,60.4,54.1,50.5,54.7,52.0,50.0,98,93,80,28.88,28.82,11,3,11,0.00
2014-10-14,68.9,56.1,45.3,50.5,43.8,35.8,98,68,37,30.06,28.82,20,6,20,0.00
2014-10-15,73.9,52.8,38.5,49.1,39.3,34.7,96,65,31,30.12,29.94,9,1,9,0.00
2014-10-16,77.9,68.2,41.2,49.3,44.8,36.7,85,44,33,29.94,28.67,3,3,3,0.00
2014-10-17,59.2,55.4,53.6,49.9,48.0,46.4,80,76,67,29.68,28.64,4,1,4,0.00
2014-10-18,62.6,48.8,37.8,41.6,37.4,32.3,95,67,42,29.35,29.17,10,2,10,0.00
2014-10-19,73.8,55.5,37.4,47.5,42.7,35.3,95,65,38,29.20,28.82,13,4,13,0.00
2014-10-20,67.8,56.8,42.6,46.6,43.1,37.0,88,63,40,29.14,28.94,12,4,12,0.00
2014-10-21,59.0,45.4,36.1,45.6,40.0,35.4,98,83,57,29.29,29.14,11,2,11,0.00
2014-10-22,65.5,45.7,40.5,44.9,39.7,38.3,93,81,46,29.29,29.09,24,5,24,0.00
2014-10-23,55.9,54.6,52.7,52.2,47.1,43.1,98,77,62,29.14,29.06,15,5,15,0.08
2014-10-24,51.4,50.4,49.6,47.2,46.9,46.6,90,88,85,30.00,29.00,8,4,229,0.08
2014-10-25,67.1,60.0,52.7,36.0,32.4,23.3,50,36,21,30.15,30.06,17,6,17,0.00
2014-10-26,70.7,51.5,33.1,38.4,30.3,22.9,89,50,17,30.15,29.68,14,3,14,0.00
2014-10-27,73.4,54.8,44.2,48.4,39.9,31.8,95,59,36,29.79,29.59,13,3,13,0.00
2014-10-28,51.8,43.4,39.4,44.2,39.4,31.3,98,86,61,30.06,29.76,20,6,20,0.00
2014-10-29,51.8,40.1,35.2,35.7,31.1,28.4,86,70,50,30.27,29.88,16,5,16,0.00
2014-10-30,51.3,42.1,32.7,41.3,35.3,12.2,88,78,41,30.44,30.09,25,2,25,0.00
2014-10-31,46.6,32.9,24.4,22.0,15.5,9.8,67,49,34,30.65,30.41,14,4,18,0.00
2014-11-1,48.7,30.8,22.6,24.7,18.7,14.0,83,63,38,30.56,30.24,17,4,17,0.00
2014-11-2,62.2,47.1,36.3,33.5,26.2,18.5,52,44,34,30.27,29.94,21,7,229,0.00
2014-11-3,59.2,47.7,44.6,51.1,38.3,28.5,98,70,52,29.97,29.82,13,5,13,0.00
2014-11-4,56.8,45.0,33.8,38.8,31.8,28.3,82,61,39,30.12,29.88,19,6,19,0.00
2014-11-5,47.7,38.2,30.9,40.5,34.4,28.1,98,87,63,30.12,29.85,12,2,12,0.00
2014-11-6,47.8,36.1,32.0,35.4,31.5,25.4,98,85,46,30.39,30.06,15,5,15,0.00
2014-11-7,49.3,40.2,30.6,43.8,31.9,28.7,98,73,54,30.27,29.74,27,6,27,0.00
2014-11-8,45.3,39.1,35.6,33.2,24.1,19.7,73,55,41,30.15,29.88,24,8,24,0.00
2014-11-9,39.9,38.0,32.7,33.0,23.0,12.2,76,55,40,29.91,29.76,10,4,11,0.00
2014-11-10,32.7,28.7,26.1,29.5,24.9,11.1,98,87,41,29.97,29.65,17,6,17,0.00
2014-11-11,29.7,24.2,17.6,22.6,17.1,8.6,98,75,55,30.36,29.97,18,8,18,0.00
2014-11-12,25.7,19.0,13.6,20.2,12.8,9.0,91,77,60,30.41,30.36,12,4,12,0.00
2014-11-13,29.8,22.4,15.8,20.8,14.7,8.5,89,73,52,30.47,30.39,12,5,12,0.00
2014-11-14,30.0,16.2,5.7,17.8,6.3,-1.9,86,66,44,30.50,30.39,9,3,9,0.00
2014-11-15,28.6,12.5,4.1,21.8,6.2,-3.5,98,76,64,30.41,30.15,4,2,4,0.00
2014-11-16,22.1,15.4,7.3,21.6,7.8,-0.2,98,74,47,30.15,29.94,2,2,2,0.00
2014-11-17,18.3,11.3,5.2,9.1,2.6,-2.8,81,69,46,30.12,29.97,15,4,17,0.00
2014-11-18,20.5,12.4,7.0,6.9,0.9,-3.6,65,59,49,30.12,29.79,12,4,12,0.00
2014-11-19,16.3,16.3,16.3,6.7,6.7,6.7,65,65,65,29.79,29.79,4,4,4,0.00
2014-11-20,23.4,13.1,2.5,7.7,0.8,-10.4,74,59,43,30.36,30.03,11,4,11,0.00
2014-11-21,34.7,20.8,1.6,33.2,9.9,-11.2,94,63,50,30.36,29.94,23,6,23,0.00
2014-11-22,46.8,36.9,34.9,46.2,36.4,33.3,98,98,94,29.97,29.53,13,5,13,0.00
2014-11-23,53.2,45.7,32.5,52.7,44.6,29.9,98,96,83,29.56,29.41,14,5,14,0.04
2014-11-24,32.5,22.2,14.4,30.6,16.2,7.8,96,78,65,30.00,29.35,24,8,24,0.00
2014-11-25,25.7,17.0,9.1,15.9,8.0,3.1,87,68,52,30.18,30.00,11,3,11,0.00
2014-11-26,31.1,23.1,10.8,26.0,17.1,-0.4,95,78,60,30.50,30.06,13,4,13,0.00
2014-11-27,23.0,7.3,-3.1,3.2,-8.4,-15.4,60,49,37,30.62,30.36,14,3,10,0.00
2014-11-28,25.0,14.0,6.4,13.0,-3.1,-13.2,75,46,39,30.36,29.91,2,2,2,0.00
2014-12-15,50.4,46.5,26.2,49.8,45.9,14.6,98,98,61,29.91,28.85,6,1,6,0.17
2014-12-16,46.6,20.6,15.4,46.0,15.1,10.1,98,79,71,30.39,29.74,17,7,17,0.08
2014-12-17,26.6,14.6,8.2,11.6,6.6,3.4,80,71,51,30.44,30.36,10,3,10,0.00
2014-12-18,25.5,14.4,7.2,21.0,8.3,0.7,92,76,67,30.44,30.36,6,2,6,0.00